Time;durP1;ratioP1;P1;durP2;ratioP2;P2;SDS_P1;SDS_P2;PMS_P1;PMS_P2;Temp;Humidity;BMP_temperature;BMP_pressure;BME280_temperature;BME280_humidity;BME280_pressure;Samples;Min_cycle;Max_cycle;Signal;HPM_P1;HPM_P2
2021/08/11 00:00:11;;;;;;;1.42;1.33;;;24.70;55.90;;;;;;5064728;28;20021;-36
2021/08/11 00:02:38;;;;;;;1.88;1.42;;;24.70;55.80;;;;;;5075124;28;20054;-36
2021/08/11 00:05:05;;;;;;;1.67;1.52;;;24.60;55.80;;;;;;5065982;28;20032;-36
2021/08/11 00:07:31;;;;;;;1.60;1.50;;;24.60;55.90;;;;;;5066361;28;20032;-36
2021/08/11 00:09:57;;;;;;;1.60;1.50;;;24.60;56.00;;;;;;5084574;28;20032;-36
2021/08/11 00:12:23;;;;;;;2.15;1.77;;;24.60;56.00;;;;;;5084525;28;20485;-38
2021/08/11 00:14:49;;;;;;;1.70;1.60;;;24.50;55.90;;;;;;5078457;28;20032;-36
2021/08/11 00:17:15;;;;;;;1.65;1.55;;;24.50;56.00;;;;;;5064477;28;20044;-36
2021/08/11 00:19:41;;;;;;;1.75;1.55;;;24.50;56.00;;;;;;5064275;28;20041;-36
2021/08/11 00:22:08;;;;;;;1.48;1.38;;;24.40;55.80;;;;;;5063167;28;20067;-36
2021/08/11 00:24:34;;;;;;;1.70;1.58;;;24.40;55.90;;;;;;5064344;28;20033;-36
2021/08/11 00:27:00;;;;;;;3.08;1.73;;;24.30;56.00;;;;;;5064440;28;20021;-36
2021/08/11 00:29:26;;;;;;;1.80;1.60;;;24.30;56.00;;;;;;5064231;28;20048;-36
2021/08/11 00:31:52;;;;;;;2.00;1.80;;;24.30;55.90;;;;;;5068209;28;20111;-36
2021/08/11 00:34:18;;;;;;;1.80;1.63;;;24.30;56.10;;;;;;5084274;28;20028;-36
2021/08/11 00:36:44;;;;;;;1.58;1.48;;;24.20;56.10;;;;;;5082893;28;20027;-36
2021/08/11 00:39:10;;;;;;;1.42;1.33;;;24.20;56.20;;;;;;5068380;28;20031;-36
2021/08/11 00:41:44;;;;;;;1.45;1.35;;;24.20;56.20;;;;;;5064215;28;20028;-36
2021/08/11 00:44:11;;;;;;;1.58;1.45;;;24.10;56.20;;;;;;5064105;28;20029;-36
2021/08/11 00:46:41;;;;;;;;;;;24.10;56.20;;;;;;5064320;28;20035;-36
2021/08/11 00:49:09;;;;;;;1.75;1.65;;;24.10;57.30;;;;;;5063755;28;19924;-35
2021/08/11 00:51:35;;;;;;;1.58;1.45;;;24.00;56.30;;;;;;5062626;28;20028;-36
2021/08/11 00:54:02;;;;;;;1.60;1.40;;;24.00;56.30;;;;;;5064017;28;20100;-37
2021/08/11 00:56:28;;;;;;;1.65;1.55;;;24.00;56.40;;;;;;5062474;28;20077;-36
2021/08/11 00:58:54;;;;;;;1.63;1.48;;;23.90;56.20;;;;;;5045720;28;20410;-36
2021/08/11 01:01:21;;;;;;;2.35;1.38;;;23.90;56.40;;;;;;5045869;28;20028;-36
2021/08/11 01:03:47;;;;;;;1.53;1.43;;;23.90;56.40;;;;;;5062401;28;20084;-36
2021/08/11 01:06:13;;;;;;;1.60;1.50;;;23.90;56.40;;;;;;5061517;28;20037;-36
2021/08/11 01:08:39;;;;;;;1.40;1.30;;;23.80;56.30;;;;;;5056963;28;20051;-36
2021/08/11 01:11:06;;;;;;;1.63;1.52;;;23.80;56.20;;;;;;5061781;28;20044;-36
2021/08/11 01:13:32;;;;;;;1.67;1.58;;;23.80;56.30;;;;;;5062235;28;20048;-36
2021/08/11 01:15:58;;;;;;;1.60;1.50;;;23.80;56.20;;;;;;5063373;28;20040;-36
2021/08/11 01:18:24;;;;;;;1.85;1.65;;;23.70;56.60;;;;;;5056977;28;20025;-36
2021/08/11 01:20:55;;;;;;;1.45;1.35;;;23.70;56.50;;;;;;5063390;28;20017;-36
2021/08/11 01:23:22;;;;;;;1.70;1.60;;;23.70;56.60;;;;;;5063196;28;20043;-36
2021/08/11 01:25:52;;;;;;;1.58;1.48;;;23.70;56.90;;;;;;5065165;28;20055;-36
2021/08/11 01:28:42;;;;;;;1.85;1.73;;;23.60;56.50;;;;;;5081845;28;20134;-37
2021/08/11 01:31:12;;;;;;;1.70;1.60;;;23.60;56.60;;;;;;5083045;28;20035;-36
2021/08/11 01:33:57;;;;;;;1.67;1.45;;;23.60;56.50;;;;;;5083275;28;20039;-36
2021/08/11 01:36:25;;;;;;;1.60;1.50;;;23.50;56.40;;;;;;5083164;28;20026;-36
2021/08/11 01:38:59;;;;;;;1.83;1.55;;;23.50;56.30;;;;;;5069910;28;20021;-36
2021/08/11 01:41:29;;;;;;;1.50;1.40;;;23.50;56.40;;;;;;5062742;28;20096;-36
2021/08/11 01:43:55;;;;;;;1.50;1.40;;;23.50;56.70;;;;;;5045391;28;20040;-35
2021/08/11 01:46:22;;;;;;;1.87;1.70;;;23.40;57.10;;;;;;5045242;28;20071;-35
2021/08/11 01:48:48;;;;;;;2.03;1.63;;;23.40;58.00;;;;;;5061479;28;20340;-36
2021/08/11 01:51:14;;;;;;;1.70;1.60;;;23.40;58.20;;;;;;5078003;28;20065;-36
2021/08/11 01:53:40;;;;;;;1.40;1.30;;;23.40;58.00;;;;;;5062805;28;20025;-36
2021/08/11 01:56:07;;;;;;;2.63;1.50;;;23.40;58.00;;;;;;5062676;28;20792;-36
2021/08/11 01:58:33;;;;;;;1.70;1.60;;;23.40;58.10;;;;;;5061383;28;20032;-36
2021/08/11 02:01:02;;;;;;;1.40;1.30;;;23.50;58.00;;;;;;5062646;28;20060;-36
2021/08/11 02:03:28;;;;;;;1.70;1.60;;;23.40;58.30;;;;;;5062713;28;20056;-36
2021/08/11 02:05:54;;;;;;;1.92;1.70;;;23.50;58.50;;;;;;5061105;28;20768;-35
2021/08/11 02:08:23;;;;;;;2.00;1.80;;;23.50;58.60;;;;;;5071332;28;20021;-36
2021/08/11 02:10:50;;;;;;;1.90;1.70;;;23.50;58.60;;;;;;5079067;28;20036;-36
2021/08/11 02:13:16;;;;;;;1.67;1.50;;;23.50;58.70;;;;;;5081336;28;20025;-36
2021/08/11 02:15:46;;;;;;;1.48;1.38;;;23.50;58.90;;;;;;5082859;28;20032;-36
2021/08/11 02:18:12;;;;;;;1.58;1.48;;;23.50;59.10;;;;;;5073986;28;20017;-36
2021/08/11 02:20:38;;;;;;;2.00;1.80;;;23.50;59.10;;;;;;5062259;28;20036;-35
2021/08/11 02:23:04;;;;;;;1.70;1.60;;;23.60;59.50;;;;;;5062426;28;20091;-36
2021/08/11 02:25:31;;;;;;;1.80;1.65;;;23.60;59.60;;;;;;5072013;28;20020;-36
2021/08/11 02:28:13;;;;;;;1.67;1.58;;;23.60;59.70;;;;;;5081165;28;20032;-36
2021/08/11 02:30:49;;;;;;;1.70;1.60;;;23.60;59.70;;;;;;5081220;28;20053;-36
2021/08/11 02:33:20;;;;;;;1.70;1.60;;;23.60;59.80;;;;;;5082385;28;20021;-36
2021/08/11 02:35:52;;;;;;;2.10;1.90;;;23.70;60.10;;;;;;5082122;28;20031;-36
2021/08/11 02:38:28;;;;;;;1.98;1.77;;;23.70;60.00;;;;;;5073936;28;20025;-36
2021/08/11 02:41:20;;;;;;;1.88;1.50;;;23.70;60.10;;;;;;5060540;28;20040;-36
2021/08/11 02:43:58;;;;;;;1.98;1.77;;;23.70;60.20;;;;;;5042088;28;20048;-36
2021/08/11 02:46:25;;;;;;;1.80;1.50;;;23.70;60.30;;;;;;5044673;28;20032;-36
2021/08/11 02:49:01;;;;;;;2.10;1.90;;;23.70;60.30;;;;;;5044279;28;20048;-36
2021/08/11 02:51:30;;;;;;;2.33;1.88;;;23.80;60.40;;;;;;5061936;28;20029;-36
2021/08/11 02:54:00;;;;;;;2.03;1.83;;;23.80;60.50;;;;;;5061985;28;20032;-35
2021/08/11 02:56:26;;;;;;;1.73;1.63;;;23.80;60.50;;;;;;5060768;28;20093;-36
2021/08/11 02:58:53;;;;;;;1.95;1.80;;;23.80;60.50;;;;;;5060895;28;20055;-36
2021/08/11 03:01:19;;;;;;;1.50;1.40;;;23.80;60.60;;;;;;5044231;28;20029;-36
2021/08/11 03:03:45;;;;;;;2.00;1.80;;;23.90;60.80;;;;;;5044119;28;20035;-36
2021/08/11 03:06:12;;;;;;;1.95;1.70;;;23.90;60.90;;;;;;5060533;28;20021;-36
2021/08/11 03:08:38;;;;;;;1.95;1.77;;;23.90;61.00;;;;;;5055176;28;20077;-36
2021/08/11 03:11:04;;;;;;;2.08;1.88;;;23.90;61.10;;;;;;5080558;28;20560;-36
2021/08/11 03:13:30;;;;;;;2.10;1.85;;;23.90;61.20;;;;;;5082065;28;20050;-36
2021/08/11 03:15:56;;;;;;;2.00;1.80;;;23.90;61.30;;;;;;5082147;28;20028;-36
2021/08/11 03:18:23;;;;;;;2.45;2.17;;;23.90;61.20;;;;;;5072050;28;20029;-36
2021/08/11 03:20:50;;;;;;;1.75;1.60;;;24.00;61.20;;;;;;5061748;28;20566;-36
2021/08/11 03:23:16;;;;;;;2.70;2.00;;;24.00;61.20;;;;;;5061551;28;20057;-36
2021/08/11 03:25:42;;;;;;;2.35;2.15;;;24.00;61.10;;;;;;5061873;28;20029;-39
2021/08/11 03:28:10;;;;;;;4.25;2.03;;;24.00;61.10;;;;;;5061813;28;20025;-36
2021/08/11 03:30:36;;;;;;;2.40;2.17;;;24.00;61.10;;;;;;5063614;28;20037;-36
2021/08/11 03:33:03;;;;;;;2.40;2.20;;;24.00;61.10;;;;;;5065106;28;20048;-36
2021/08/11 03:35:29;;;;;;;2.42;2.13;;;24.00;61.10;;;;;;5082830;28;20039;-36
2021/08/11 03:37:56;;;;;;;2.17;1.98;;;24.00;61.10;;;;;;5080037;28;20029;-36
2021/08/11 03:40:22;;;;;;;2.15;1.95;;;24.00;61.10;;;;;;5065185;28;20712;-36
2021/08/11 03:42:48;;;;;;;1.73;1.63;;;24.00;61.20;;;;;;5065057;28;20044;-36
2021/08/11 03:45:14;;;;;;;2.40;2.00;;;24.00;61.20;;;;;;5065192;28;20033;-36
2021/08/11 03:47:41;;;;;;;2.28;2.08;;;24.10;61.30;;;;;;5065174;28;20028;-36
2021/08/11 03:50:11;;;;;;;2.45;2.25;;;24.10;61.30;;;;;;5065142;28;20068;-37
2021/08/11 03:52:37;;;;;;;2.40;1.88;;;24.10;61.30;;;;;;5064852;28;20585;-36
2021/08/11 03:55:04;;;;;;;2.38;1.98;;;24.10;61.40;;;;;;5064990;28;20021;-36
2021/08/11 03:57:30;;;;;;;2.28;2.08;;;24.10;61.40;;;;;;5064719;28;20025;-36
2021/08/11 03:59:56;;;;;;;2.30;2.10;;;24.10;61.40;;;;;;5065051;28;20039;-36
2021/08/11 04:02:23;;;;;;;3.42;2.28;;;24.10;61.40;;;;;;5064558;28;20032;-36
2021/08/11 04:04:49;;;;;;;2.78;2.28;;;24.10;61.50;;;;;;5083370;28;20032;-38
2021/08/11 04:07:15;;;;;;;3.00;2.70;;;24.10;61.50;;;;;;5084708;28;20392;-36
2021/08/11 04:09:41;;;;;;;2.35;2.05;;;24.10;61.40;;;;;;5084711;28;20040;-36
2021/08/11 04:12:07;;;;;;;2.80;2.50;;;24.10;61.50;;;;;;5079814;28;20025;-36
2021/08/11 04:14:33;;;;;;;3.03;2.37;;;24.10;61.50;;;;;;5084644;28;20100;-37
2021/08/11 04:17:00;;;;;;;2.58;2.35;;;24.10;61.60;;;;;;5084662;28;20028;-36
2021/08/11 04:19:26;;;;;;;2.67;2.42;;;24.10;61.60;;;;;;5065582;28;20048;-36
2021/08/11 04:21:52;;;;;;;3.00;2.72;;;24.20;61.80;;;;;;5064398;28;20048;-36
2021/08/11 04:24:22;;;;;;;2.50;2.30;;;24.20;61.80;;;;;;5064463;28;20219;-36
2021/08/11 04:26:48;;;;;;;3.10;2.60;;;24.20;61.90;;;;;;5067441;28;20028;-36
2021/08/11 04:29:14;;;;;;;2.88;2.50;;;24.20;61.90;;;;;;5064281;28;20057;-36
2021/08/11 04:31:40;;;;;;;2.75;2.40;;;24.20;61.90;;;;;;5064052;28;20581;-36
2021/08/11 04:34:06;;;;;;;2.83;2.55;;;24.20;61.80;;;;;;5077083;28;20059;-36
2021/08/11 04:36:32;;;;;;;3.00;2.70;;;24.20;61.80;;;;;;5084078;28;20101;-36
2021/08/11 04:38:58;;;;;;;3.00;2.70;;;24.20;61.80;;;;;;5084415;28;20025;-36
2021/08/11 04:41:25;;;;;;;3.10;2.47;;;24.20;61.80;;;;;;5084005;28;20038;-36
2021/08/11 04:43:52;;;;;;;3.10;2.63;;;24.20;61.80;;;;;;5083947;28;20028;-36
2021/08/11 04:46:18;;;;;;;3.03;2.70;;;24.20;61.80;;;;;;5084199;28;20086;-36
2021/08/11 04:48:44;;;;;;;3.40;3.10;;;24.20;61.80;;;;;;5071061;28;20035;-36
2021/08/11 04:51:10;;;;;;;3.40;3.10;;;24.20;61.90;;;;;;5062390;28;20460;-36
2021/08/11 04:53:36;;;;;;;3.20;2.60;;;24.20;61.90;;;;;;5063929;28;20032;-36
2021/08/11 04:56:03;;;;;;;3.00;2.80;;;24.20;61.90;;;;;;5063797;28;20021;-36
2021/08/11 04:58:29;;;;;;;2.80;2.50;;;24.20;62.00;;;;;;5063720;28;20048;-37
2021/08/11 05:00:55;;;;;;;3.20;2.80;;;24.30;62.10;;;;;;5062150;28;20025;-36
2021/08/11 05:03:21;;;;;;;3.38;3.08;;;24.30;62.20;;;;;;5070229;28;20080;-36
2021/08/11 05:05:47;;;;;;;3.28;2.97;;;24.20;62.10;;;;;;5083757;28;20506;-36
2021/08/11 05:08:13;;;;;;;3.13;2.83;;;24.30;62.20;;;;;;5082222;28;20473;-37
2021/08/11 05:10:40;;;;;;;3.00;2.70;;;24.20;62.20;;;;;;5081910;28;20045;-36
2021/08/11 05:13:06;;;;;;;3.13;2.83;;;24.30;62.20;;;;;;5083484;28;20035;-37
2021/08/11 05:15:32;;;;;;;3.10;2.70;;;24.30;62.20;;;;;;5083408;28;20089;-36
2021/08/11 05:17:58;;;;;;;3.00;2.70;;;24.30;62.10;;;;;;5076887;28;20028;-36
2021/08/11 05:20:24;;;;;;;3.35;3.05;;;24.30;62.00;;;;;;5063027;28;20096;-36
2021/08/11 05:22:51;;;;;;;3.42;3.00;;;24.30;62.00;;;;;;5063180;28;20055;-36
2021/08/11 05:25:17;;;;;;;3.50;3.10;;;24.30;62.10;;;;;;5063393;28;20086;-36
2021/08/11 05:27:44;;;;;;;3.05;2.85;;;24.30;62.10;;;;;;5063244;28;20435;-36
2021/08/11 05:30:11;;;;;;;4.60;3.20;;;24.30;62.10;;;;;;5063215;28;20039;-36
2021/08/11 05:32:37;;;;;;;3.42;3.13;;;24.30;62.20;;;;;;5063768;28;20048;-36
2021/08/11 05:35:04;;;;;;;3.75;3.40;;;24.30;62.30;;;;;;5081811;28;20035;-36
2021/08/11 05:37:30;;;;;;;3.63;3.03;;;24.30;62.40;;;;;;5083181;28;20039;-36
2021/08/11 05:39:56;;;;;;;3.50;2.97;;;24.30;62.50;;;;;;5083095;28;20028;-36
2021/08/11 05:42:22;;;;;;;3.40;3.10;;;24.30;62.50;;;;;;5082582;28;20031;-36
2021/08/11 05:44:50;;;;;;;3.78;3.13;;;24.30;62.50;;;;;;5083029;28;20025;-36
2021/08/11 05:47:17;;;;;;;3.60;3.03;;;24.30;62.50;;;;;;5082122;28;20035;-36
2021/08/11 05:49:43;;;;;;;3.25;2.95;;;24.30;62.50;;;;;;5062604;28;20063;-36
2021/08/11 05:52:09;;;;;;;3.90;3.38;;;24.30;62.60;;;;;;5062555;28;20064;-36
2021/08/11 05:54:36;;;;;;;3.73;3.13;;;24.30;62.60;;;;;;5062540;28;20055;-37
2021/08/11 05:57:03;;;;;;;3.67;2.90;;;24.30;62.60;;;;;;5062631;28;20032;-36
2021/08/11 05:59:29;;;;;;;3.25;2.95;;;24.30;62.50;;;;;;5062722;28;20037;-36
2021/08/11 06:01:55;;;;;;;3.35;2.92;;;24.30;62.50;;;;;;5063535;28;21397;-36
2021/08/11 06:04:23;;;;;;;3.88;3.53;;;24.30;62.60;;;;;;5077582;28;20600;-36
2021/08/11 06:06:51;;;;;;;3.65;3.17;;;24.30;62.60;;;;;;5082628;28;20084;-36
2021/08/11 06:09:17;;;;;;;3.45;3.00;;;24.30;62.70;;;;;;5081385;28;20090;-37
2021/08/11 06:11:43;;;;;;;4.03;3.63;;;24.30;62.70;;;;;;5082467;28;20032;-36
2021/08/11 06:14:09;;;;;;;3.70;3.40;;;24.30;62.90;;;;;;5082527;28;20499;-36
2021/08/11 06:16:36;;;;;;;4.10;3.73;;;24.30;63.00;;;;;;5082584;28;20078;-37
2021/08/11 06:19:03;;;;;;;;;;;24.30;62.90;;;;;;5067333;28;20657;-36
2021/08/11 06:21:29;;;;;;;3.75;3.33;;;24.30;62.90;;;;;;5062079;28;20003;-36
2021/08/11 06:23:55;;;;;;;3.70;3.40;;;24.30;63.00;;;;;;5061044;28;20032;-36
2021/08/11 06:26:22;;;;;;;3.92;3.53;;;24.30;63.60;;;;;;5062453;28;20021;-36
2021/08/11 06:28:48;;;;;;;4.20;3.58;;;24.30;62.80;;;;;;5077187;28;20032;-36
2021/08/11 06:31:17;;;;;;;3.70;3.33;;;24.30;62.80;;;;;;5082237;28;20053;-36
2021/08/11 06:33:46;;;;;;;3.67;3.38;;;24.30;62.90;;;;;;5072557;28;20032;-36
2021/08/11 06:36:12;;;;;;;3.92;3.53;;;24.30;62.80;;;;;;5062159;28;20039;-36
2021/08/11 06:38:38;;;;;;;3.73;3.33;;;24.30;62.90;;;;;;5062362;28;20588;-36
2021/08/11 06:41:05;;;;;;;3.85;3.40;;;24.30;62.90;;;;;;5062245;28;20029;-36
2021/08/11 06:43:31;;;;;;;5.33;3.50;;;24.30;63.00;;;;;;5061968;28;20083;-36
2021/08/11 06:45:57;;;;;;;4.20;3.63;;;24.30;62.90;;;;;;5060969;28;20082;-36
2021/08/11 06:48:23;;;;;;;4.47;3.95;;;24.30;62.90;;;;;;5061956;28;20055;-36
2021/08/11 06:50:49;;;;;;;3.90;3.47;;;24.30;62.80;;;;;;5062248;28;20048;-36
2021/08/11 06:53:16;;;;;;;4.07;3.63;;;24.30;62.80;;;;;;5061903;28;20025;-36
2021/08/11 06:55:42;;;;;;;4.35;3.95;;;24.30;62.90;;;;;;5062154;28;20044;-36
2021/08/11 06:58:08;;;;;;;4.07;3.67;;;24.30;63.00;;;;;;5062134;28;20040;-36
2021/08/11 07:00:34;;;;;;;4.05;3.65;;;24.30;63.10;;;;;;5061846;28;20025;-36
2021/08/11 07:03:00;;;;;;;4.60;3.92;;;24.30;63.10;;;;;;5065548;28;20023;-36
2021/08/11 07:05:26;;;;;;;4.25;3.85;;;24.30;63.10;;;;;;5082562;28;20038;-36
2021/08/11 07:07:52;;;;;;;3.80;3.42;;;24.30;63.20;;;;;;5085765;28;20025;-36
2021/08/11 07:10:19;;;;;;;3.95;3.53;;;24.30;63.20;;;;;;5086061;28;20047;-36
2021/08/11 07:12:45;;;;;;;4.07;3.67;;;24.30;63.30;;;;;;5085569;28;20078;-36
2021/08/11 07:15:12;;;;;;;4.30;3.90;;;24.30;63.20;;;;;;5085802;28;20727;-37
2021/08/11 07:17:50;;;;;;;4.22;3.83;;;24.30;63.20;;;;;;5082076;28;20041;-36
2021/08/11 07:20:16;;;;;;;3.92;3.60;;;24.30;63.00;;;;;;5065640;28;20059;-36
2021/08/11 07:22:42;;;;;;;4.05;3.70;;;24.30;63.00;;;;;;5065400;28;20064;-39
2021/08/11 07:25:09;;;;;;;3.92;3.53;;;24.30;63.00;;;;;;5071508;28;20051;-36
2021/08/11 07:27:35;;;;;;;3.72;3.28;;;24.30;62.90;;;;;;5085542;28;20643;-36
2021/08/11 07:30:04;;;;;;;3.60;3.30;;;24.30;62.80;;;;;;5085391;28;20045;-36
2021/08/11 07:32:30;;;;;;;3.80;3.25;;;24.30;62.80;;;;;;5085228;28;20111;-36
2021/08/11 07:34:56;;;;;;;4.17;3.13;;;24.30;62.90;;;;;;5065566;28;20457;-36
2021/08/11 07:37:22;;;;;;;4.55;3.60;;;24.20;63.00;;;;;;5065260;28;20330;-36
2021/08/11 07:39:49;;;;;;;4.07;3.67;;;24.30;63.00;;;;;;5065272;28;20052;-36
2021/08/11 07:42:15;;;;;;;3.88;3.47;;;24.30;63.10;;;;;;5064950;28;20116;-36
2021/08/11 07:44:41;;;;;;;4.13;3.72;;;24.20;63.10;;;;;;5065249;28;20036;-36
2021/08/11 07:47:07;;;;;;;4.53;3.72;;;24.30;63.20;;;;;;5065328;28;20032;-36
2021/08/11 07:49:33;;;;;;;4.10;3.70;;;24.20;63.20;;;;;;5065152;28;20064;-36
2021/08/11 07:51:59;;;;;;;4.18;3.78;;;24.20;63.20;;;;;;5065122;28;20052;-36
2021/08/11 07:54:25;;;;;;;3.92;3.53;;;24.20;63.20;;;;;;5071106;28;20024;-36
2021/08/11 07:56:52;;;;;;;3.70;3.25;;;24.20;63.30;;;;;;5084988;28;20076;-36
2021/08/11 07:59:18;;;;;;;4.10;3.70;;;24.20;63.20;;;;;;5084731;28;20035;-36
2021/08/11 08:01:44;;;;;;;3.92;3.47;;;24.20;63.20;;;;;;5085100;28;20036;-36
2021/08/11 08:04:10;;;;;;;4.00;3.60;;;24.20;63.10;;;;;;5071116;28;20600;-36
2021/08/11 08:06:36;;;;;;;3.85;3.47;;;24.20;63.00;;;;;;5064608;28;20020;-37
2021/08/11 08:09:03;;;;;;;3.38;3.08;;;24.20;62.90;;;;;;5078555;28;20029;-37
2021/08/11 08:11:29;;;;;;;4.45;3.70;;;24.20;62.80;;;;;;5084739;28;20123;-36
2021/08/11 08:13:55;;;;;;;3.63;3.33;;;24.20;62.70;;;;;;5084472;28;20020;-36
2021/08/11 08:16:21;;;;;;;4.03;3.40;;;24.20;62.90;;;;;;5084180;28;20017;-36
2021/08/11 08:18:48;;;;;;;3.60;3.30;;;24.20;62.90;;;;;;5071392;28;20040;-36
2021/08/11 08:21:14;;;;;;;4.03;3.63;;;24.20;63.00;;;;;;5064493;28;20430;-36
2021/08/11 08:23:41;;;;;;;4.35;3.95;;;24.20;63.10;;;;;;5063981;28;20716;-36
2021/08/11 08:26:07;;;;;;;4.70;4.20;;;24.20;63.20;;;;;;5064476;28;20036;-36
2021/08/11 08:28:33;;;;;;;4.18;3.75;;;24.20;63.20;;;;;;5064383;28;20044;-36
2021/08/11 08:30:59;;;;;;;3.90;3.47;;;24.20;63.20;;;;;;5064378;28;20040;-36
2021/08/11 08:33:25;;;;;;;4.40;3.85;;;24.20;63.30;;;;;;5064167;28;20049;-37
2021/08/11 08:35:51;;;;;;;4.28;3.88;;;24.20;63.20;;;;;;5065430;28;20017;-36
2021/08/11 08:38:19;;;;;;;4.43;4.03;;;24.20;63.20;;;;;;5072321;28;20029;-36
2021/08/11 08:40:46;;;;;;;3.63;3.33;;;24.20;63.00;;;;;;5084156;28;20400;-36
2021/08/11 08:43:12;;;;;;;;;;;24.20;63.00;;;;;;5084338;28;20089;-36
2021/08/11 08:45:38;;;;;;;4.10;3.70;;;24.20;62.90;;;;;;5084192;28;19993;-36
2021/08/11 08:48:05;;;;;;;4.38;3.97;;;24.20;62.90;;;;;;5076723;28;20021;-36
2021/08/11 08:50:32;;;;;;;3.58;3.28;;;24.20;62.80;;;;;;5063878;28;20032;-36
2021/08/11 08:52:59;;;;;;;4.20;3.80;;;24.20;62.90;;;;;;5063950;28;20036;-36
2021/08/11 08:55:26;;;;;;;4.05;3.65;;;24.20;62.90;;;;;;5063588;28;20032;-36
2021/08/11 08:57:52;;;;;;;6.70;3.97;;;24.20;63.70;;;;;;5063805;28;20055;-36
2021/08/11 09:00:19;;;;;;;3.55;3.25;;;24.20;63.00;;;;;;5063912;28;20036;-36
2021/08/11 09:02:45;;;;;;;5.22;4.07;;;24.10;63.10;;;;;;5079183;28;20044;-36
2021/08/11 09:05:12;;;;;;;4.60;3.70;;;24.10;63.10;;;;;;5078873;28;20021;-36
2021/08/11 09:07:46;;;;;;;4.05;3.65;;;24.10;63.10;;;;;;5066757;28;20036;-36
2021/08/11 09:10:30;;;;;;;4.45;4.03;;;24.10;63.10;;;;;;5082118;28;20047;-36
2021/08/11 09:13:07;;;;;;;4.30;3.63;;;24.10;63.20;;;;;;5083556;28;20119;-36
2021/08/11 09:15:44;;;;;;;4.13;3.42;;;24.10;63.30;;;;;;5083483;28;20036;-36
2021/08/11 09:18:12;;;;;;;4.32;3.88;;;24.10;63.30;;;;;;5075352;28;20037;-36
2021/08/11 09:20:39;;;;;;;3.97;3.60;;;24.10;63.30;;;;;;5063450;28;20029;-36
2021/08/11 09:23:05;;;;;;;4.60;3.70;;;24.10;63.20;;;;;;5061804;28;20051;-36
2021/08/11 09:25:31;;;;;;;4.03;3.70;;;24.10;63.10;;;;;;5072550;28;20026;-36
2021/08/11 09:27:57;;;;;;;3.73;3.40;;;24.10;63.10;;;;;;5081284;28;20083;-36
2021/08/11 09:30:24;;;;;;;3.92;3.53;;;24.10;63.10;;;;;;5081861;28;20189;-36
2021/08/11 09:32:52;;;;;;;4.28;3.88;;;24.10;63.10;;;;;;5083352;28;20040;-36
2021/08/11 09:35:20;;;;;;;3.92;3.53;;;24.10;63.00;;;;;;5082951;28;20044;-36
2021/08/11 09:37:48;;;;;;;4.80;3.80;;;24.10;63.00;;;;;;5077316;28;20021;-36
2021/08/11 09:40:16;;;;;;;3.97;3.63;;;24.10;63.10;;;;;;5062807;28;20025;-36
2021/08/11 09:42:42;;;;;;;3.65;3.35;;;24.10;63.10;;;;;;5062996;28;20521;-36
2021/08/11 09:45:09;;;;;;;3.88;3.58;;;24.10;63.10;;;;;;5061432;28;20044;-36
2021/08/11 09:47:36;;;;;;;;;;;24.10;63.10;;;;;;5063412;28;20033;-36
2021/08/11 09:50:03;;;;;;;4.70;3.65;;;24.10;63.10;;;;;;5062585;28;19947;-36
2021/08/11 09:52:49;;;;;;;4.80;3.88;;;24.10;63.20;;;;;;5062997;28;20112;-36
2021/08/11 09:55:15;;;;;;;4.22;3.50;;;24.10;63.20;;;;;;5067260;28;20039;-36
2021/08/11 09:57:42;;;;;;;4.20;3.80;;;24.10;63.20;;;;;;5081555;28;20036;-37
2021/08/11 10:00:13;;;;;;;4.47;4.07;;;24.10;63.30;;;;;;5081684;28;20408;-36
2021/08/11 10:02:42;;;;;;;4.45;3.83;;;24.10;63.40;;;;;;5082687;28;20028;-36
2021/08/11 10:05:10;;;;;;;4.38;3.97;;;24.10;63.30;;;;;;5081239;28;20029;-36
2021/08/11 10:07:37;;;;;;;4.07;3.67;;;24.10;63.30;;;;;;5079848;28;20064;-36
2021/08/11 10:10:07;;;;;;;4.30;3.90;;;24.10;63.40;;;;;;5062370;28;20124;-36
2021/08/11 10:12:34;;;;;;;4.07;3.65;;;24.00;63.30;;;;;;5062842;28;20068;-36
2021/08/11 10:15:01;;;;;;;;;;;24.00;63.30;;;;;;5062891;28;20460;-36
2021/08/11 10:17:30;;;;;;;3.92;3.53;;;24.00;63.40;;;;;;5062548;28;19912;-36
2021/08/11 10:19:58;;;;;;;4.20;3.80;;;24.00;63.40;;;;;;5062590;28;20029;-36
2021/08/11 10:22:24;;;;;;;4.05;3.63;;;24.00;63.40;;;;;;5062429;28;20048;-36
2021/08/11 10:24:51;;;;;;;4.30;3.90;;;24.00;63.40;;;;;;5062284;28;20056;-36
2021/08/11 10:27:18;;;;;;;4.20;3.80;;;24.00;63.40;;;;;;5061416;28;20040;-36
2021/08/11 10:29:45;;;;;;;3.85;3.55;;;24.00;63.40;;;;;;5060886;28;20300;-36
2021/08/11 10:32:11;;;;;;;4.45;4.05;;;24.00;63.50;;;;;;5061207;28;20080;-36
2021/08/11 10:34:38;;;;;;;4.57;4.18;;;24.00;63.50;;;;;;5077749;28;20036;-36
2021/08/11 10:37:05;;;;;;;4.35;3.90;;;24.00;63.50;;;;;;5060770;28;20029;-36
2021/08/11 10:39:31;;;;;;;4.13;3.72;;;24.00;63.50;;;;;;5075481;28;20036;-36
2021/08/11 10:42:01;;;;;;;4.07;3.67;;;24.00;63.50;;;;;;5066657;28;20021;-36
2021/08/11 10:44:27;;;;;;;4.30;3.80;;;24.00;63.60;;;;;;5066495;28;20065;-37
2021/08/11 10:46:57;;;;;;;4.13;3.73;;;24.00;63.60;;;;;;5064985;28;20060;-36
2021/08/11 10:49:27;;;;;;;5.28;3.97;;;24.00;63.60;;;;;;5066273;28;20044;-36
2021/08/11 10:51:58;;;;;;;4.32;3.92;;;24.00;63.60;;;;;;5081275;28;20557;-36
2021/08/11 10:54:24;;;;;;;4.97;3.92;;;24.00;63.60;;;;;;5064837;28;20029;-36
2021/08/11 10:56:51;;;;;;;4.60;4.20;;;24.00;63.70;;;;;;5064637;28;20096;-36
2021/08/11 10:59:24;;;;;;;3.65;3.33;;;24.00;63.60;;;;;;5066343;28;20036;-36
2021/08/11 11:01:51;;;;;;;4.15;3.75;;;24.00;63.70;;;;;;5066235;28;20136;-36
2021/08/11 11:04:39;;;;;;;4.30;3.90;;;24.00;63.70;;;;;;5066236;28;20025;-36
2021/08/11 11:07:16;;;;;;;4.50;4.10;;;24.00;63.70;;;;;;5065726;28;20033;-36
2021/08/11 11:09:43;;;;;;;4.60;4.15;;;24.00;63.80;;;;;;5045825;28;20044;-36
2021/08/11 11:12:19;;;;;;;4.40;4.00;;;24.00;63.80;;;;;;5046002;28;20132;-36
2021/08/11 11:15:01;;;;;;;4.60;3.78;;;24.00;63.80;;;;;;5046068;28;20029;-36
2021/08/11 11:17:30;;;;;;;4.35;3.95;;;24.00;63.80;;;;;;5048139;28;20053;-36
2021/08/11 11:20:08;;;;;;;3.80;3.40;;;24.00;63.80;;;;;;5064409;28;20021;-36
2021/08/11 11:22:54;;;;;;;5.10;4.28;;;24.00;63.80;;;;;;5064288;28;20090;-36
2021/08/11 11:25:40;;;;;;;5.32;4.05;;;24.00;63.90;;;;;;5065360;28;20096;-36
2021/08/11 11:28:06;;;;;;;4.53;4.13;;;24.00;63.80;;;;;;5064611;28;20053;-36
2021/08/11 11:30:34;;;;;;;5.22;4.53;;;23.90;63.80;;;;;;5068100;28;20091;-36
2021/08/11 11:33:18;;;;;;;;;;;23.90;63.80;;;;;;5066194;28;20037;-36
2021/08/11 11:35:44;;;;;;;5.43;4.10;;;23.90;63.80;;;;;;5065167;28;19905;-36
2021/08/11 11:38:12;;;;;;;4.38;3.97;;;23.90;63.80;;;;;;5073056;28;20044;-36
2021/08/11 11:40:56;;;;;;;4.38;3.85;;;23.90;63.80;;;;;;5085517;28;20629;-36
2021/08/11 11:43:30;;;;;;;4.57;4.18;;;23.90;63.80;;;;;;5085663;28;20036;-37
2021/08/11 11:45:56;;;;;;;5.43;4.20;;;23.90;63.80;;;;;;5085101;28;20025;-36
2021/08/11 11:48:22;;;;;;;4.18;3.72;;;23.90;63.90;;;;;;5074125;28;20021;-39
2021/08/11 11:50:53;;;;;;;4.43;3.90;;;23.90;63.80;;;;;;5064307;28;20052;-36
2021/08/11 11:53:32;;;;;;;4.20;3.83;;;23.90;63.90;;;;;;5063515;28;20025;-36
2021/08/11 11:55:58;;;;;;;4.40;4.00;;;23.90;63.80;;;;;;5065106;28;20020;-36
2021/08/11 11:58:26;;;;;;;6.25;3.95;;;23.90;63.90;;;;;;5065302;28;20028;-36
2021/08/11 12:01:04;;;;;;;4.30;3.90;;;23.90;63.90;;;;;;5065168;28;20480;-36
2021/08/11 12:03:51;;;;;;;4.60;4.03;;;23.90;63.90;;;;;;5064935;28;20029;-36
2021/08/11 12:06:34;;;;;;;4.47;3.75;;;23.90;63.90;;;;;;5080629;28;20029;-36
2021/08/11 12:09:00;;;;;;;4.85;4.38;;;23.90;63.90;;;;;;5070388;28;20096;-36
2021/08/11 12:11:27;;;;;;;4.75;4.22;;;23.90;63.90;;;;;;5064862;28;20029;-36
2021/08/11 12:13:57;;;;;;;4.15;3.78;;;23.90;63.90;;;;;;5064891;28;20029;-36
2021/08/11 12:16:23;;;;;;;4.30;3.83;;;23.90;63.90;;;;;;5063185;28;20036;-36
2021/08/11 12:18:50;;;;;;;5.15;4.28;;;23.90;63.90;;;;;;5063113;28;20029;-36
2021/08/11 12:21:20;;;;;;;4.28;3.88;;;23.90;63.90;;;;;;5063233;28;20053;-36
2021/08/11 12:23:47;;;;;;;4.35;3.80;;;23.90;64.00;;;;;;5064393;28;20033;-36
2021/08/11 12:26:14;;;;;;;4.10;3.70;;;23.90;64.00;;;;;;5064470;28;20079;-36
2021/08/11 12:29:00;;;;;;;4.38;3.97;;;23.90;63.90;;;;;;5064484;28;20273;-36
2021/08/11 12:31:32;;;;;;;3.88;3.50;;;23.90;64.00;;;;;;5064503;28;20048;-36
2021/08/11 12:34:00;;;;;;;4.68;4.25;;;23.90;63.90;;;;;;5062606;28;20181;-36
2021/08/11 12:36:29;;;;;;;5.00;4.20;;;23.90;63.90;;;;;;5066704;28;20081;-36
2021/08/11 12:39:01;;;;;;;4.28;3.88;;;23.90;63.90;;;;;;5071177;28;20088;-36
2021/08/11 12:41:27;;;;;;;4.22;3.78;;;23.90;63.90;;;;;;5063608;28;20031;-37
2021/08/11 12:43:56;;;;;;;4.20;3.72;;;23.90;63.80;;;;;;5064278;28;20048;-36
2021/08/11 12:46:41;;;;;;;4.28;3.88;;;23.90;63.80;;;;;;5064056;28;20040;-36
2021/08/11 12:49:27;;;;;;;4.18;3.78;;;23.90;63.80;;;;;;5064030;28;20021;-35
2021/08/11 12:52:18;;;;;;;4.50;4.03;;;23.90;63.80;;;;;;5064018;28;20037;-36